Time;durP1;ratioP1;P1;durP2;ratioP2;P2;SDS_P1;SDS_P2;PMS_P1;PMS_P2;Temp;Humidity;BMP_temperature;BMP_pressure;BME280_temperature;BME280_humidity;BME280_pressure;Samples;Min_cycle;Max_cycle;Signal;HPM_P1;HPM_P2
2022/04/05 00:01:21;;;;;;;3.13;2.80;;;5.70;99.90;;;;;;5027923;28;20354;-71
2022/04/05 00:03:47;;;;;;;4.10;2.50;;;5.40;99.90;;;;;;5027981;28;20267;-72
2022/04/05 00:06:14;;;;;;;2.30;2.10;;;5.40;99.90;;;;;;5037032;28;20212;-71
2022/04/05 00:08:41;;;;;;;4.50;2.40;;;5.30;99.90;;;;;;5047935;28;20543;-72
2022/04/05 00:11:09;;;;;;;2.43;2.23;;;5.30;99.90;;;;;;5048043;28;20211;-72
2022/04/05 00:13:35;;;;;;;5.17;2.57;;;5.30;99.90;;;;;;5042088;28;20266;-71
2022/04/05 00:16:04;;;;;;;4.23;2.37;;;5.30;99.90;;;;;;5027509;28;20204;-72
2022/04/05 00:18:31;;;;;;;2.30;2.07;;;5.30;99.90;;;;;;5042503;28;20223;-71
2022/04/05 00:20:58;;;;;;;3.20;2.60;;;5.30;99.90;;;;;;5047481;28;20734;-71
2022/04/05 00:23:25;;;;;;;3.80;2.40;;;5.30;99.90;;;;;;5039000;28;20235;-71
2022/04/05 00:25:52;;;;;;;2.93;2.50;;;5.30;99.90;;;;;;5027663;28;20209;-71
2022/04/05 00:28:20;;;;;;;3.80;2.40;;;5.30;99.90;;;;;;5028063;28;20204;-71
2022/04/05 00:30:47;;;;;;;4.20;2.50;;;5.30;99.90;;;;;;5030562;28;20221;-73
2022/04/05 00:33:13;;;;;;;4.60;2.40;;;5.30;99.90;;;;;;5031962;28;20197;-73
2022/04/05 00:35:40;;;;;;;3.80;2.63;;;5.30;99.90;;;;;;5031641;28;20270;-73
2022/04/05 00:38:08;;;;;;;3.17;2.87;;;5.40;99.90;;;;;;5031283;28;20719;-72
2022/04/05 00:40:36;;;;;;;4.43;3.50;;;5.40;99.90;;;;;;5031826;28;20565;-73
2022/04/05 00:43:05;;;;;;;6.43;4.13;;;5.40;99.90;;;;;;5031511;28;20307;-73
2022/04/05 00:45:34;;;;;;;4.13;3.27;;;5.50;99.90;;;;;;5031064;28;20205;-72
2022/04/05 00:48:01;;;;;;;8.90;3.30;;;5.50;99.90;;;;;;5031287;28;20212;-72
2022/04/05 00:50:28;;;;;;;5.50;3.60;;;5.50;99.90;;;;;;5030969;28;20205;-72
2022/04/05 00:52:55;;;;;;;5.60;5.10;;;5.50;99.90;;;;;;5027560;28;20205;-72
2022/04/05 00:55:22;;;;;;;8.57;5.67;;;5.50;99.90;;;;;;5031118;28;20975;-73
2022/04/05 00:57:51;;;;;;;8.83;6.33;;;5.60;99.90;;;;;;5031224;28;20197;-71
2022/04/05 01:00:18;;;;;;;7.90;5.40;;;5.60;99.90;;;;;;5031135;28;20240;-71
2022/04/05 01:02:48;;;;;;;6.97;6.03;;;5.60;99.90;;;;;;5041721;28;20212;-71
2022/04/05 01:05:18;;;;;;;6.57;5.50;;;5.70;99.90;;;;;;5051450;28;20262;-71
2022/04/05 01:07:46;;;;;;;5.67;5.07;;;5.70;99.90;;;;;;5050883;28;20689;-71
2022/04/05 01:10:13;;;;;;;7.30;5.50;;;5.70;99.90;;;;;;5050770;28;20618;-71
2022/04/05 01:12:41;;;;;;;7.83;4.50;;;5.80;99.90;;;;;;5051016;28;20262;-71
2022/04/05 01:15:09;;;;;;;6.73;4.23;;;5.90;99.90;;;;;;5036707;28;20212;-71
2022/04/05 01:17:36;;;;;;;4.90;3.73;;;5.90;99.90;;;;;;5030845;28;20234;-71
2022/04/05 01:20:05;;;;;;;7.03;3.43;;;5.80;99.90;;;;;;5030610;28;20240;-71
2022/04/05 01:22:32;;;;;;;5.83;3.10;;;5.80;99.90;;;;;;5030800;28;20219;-72
2022/04/05 01:25:00;;;;;;;6.43;2.90;;;5.90;99.90;;;;;;5030630;28;20209;-71
2022/04/05 01:27:27;;;;;;;5.27;2.37;;;5.80;99.90;;;;;;5030919;28;20205;-71
2022/04/05 01:29:55;;;;;;;4.53;1.53;;;5.70;99.90;;;;;;5030339;28;20224;-71
2022/04/05 01:32:22;;;;;;;4.03;1.47;;;5.60;99.90;;;;;;5030655;28;20240;-70
2022/04/05 01:34:49;;;;;;;4.27;1.63;;;5.50;99.90;;;;;;5030759;28;20201;-71
2022/04/05 01:37:15;;;;;;;3.83;1.60;;;5.50;99.90;;;;;;5030880;28;20209;-70
2022/04/05 01:39:43;;;;;;;4.10;1.83;;;5.50;99.90;;;;;;5030469;28;20232;-70
2022/04/05 01:42:13;;;;;;;5.50;1.63;;;5.50;99.90;;;;;;5029493;28;20266;-72
2022/04/05 01:44:41;;;;;;;3.33;1.93;;;5.50;99.90;;;;;;5030544;28;20193;-71
2022/04/05 01:47:10;;;;;;;3.40;1.80;;;5.50;99.90;;;;;;5030266;28;20216;-70
2022/04/05 01:49:37;;;;;;;7.27;2.20;;;5.40;99.90;;;;;;5030103;28;20197;-70
2022/04/05 01:52:05;;;;;;;3.83;2.23;;;5.40;99.90;;;;;;5029972;28;20205;-70
2022/04/05 01:54:31;;;;;;;4.77;2.03;;;5.40;99.90;;;;;;5023153;28;20212;-70
2022/04/05 01:56:58;;;;;;;5.63;1.90;;;5.50;99.90;;;;;;5030259;28;20220;-70
2022/04/05 01:59:28;;;;;;;6.37;2.13;;;5.50;99.90;;;;;;5029598;28;20240;-71
2022/04/05 02:01:55;;;;;;;4.23;1.83;;;5.50;99.90;;;;;;5030085;28;20259;-71
2022/04/05 02:04:22;;;;;;;7.73;2.10;;;5.50;99.90;;;;;;5030103;28;20235;-71
2022/04/05 02:06:49;;;;;;;4.90;1.77;;;5.50;99.90;;;;;;5029889;28;20205;-71
2022/04/05 02:09:17;;;;;;;4.20;2.23;;;5.50;99.90;;;;;;5030328;28;20209;-72
2022/04/05 02:11:46;;;;;;;7.03;2.10;;;5.50;99.90;;;;;;5029750;28;20664;-73
2022/04/05 02:14:13;;;;;;;6.07;1.83;;;5.40;99.90;;;;;;5029876;28;20209;-72
2022/04/05 02:16:42;;;;;;;8.30;1.80;;;5.40;99.90;;;;;;5030075;28;20295;-72
2022/04/05 02:19:09;;;;;;;3.53;1.70;;;5.40;99.90;;;;;;5031932;28;20240;-72
2022/04/05 02:21:36;;;;;;;4.27;2.07;;;5.40;99.90;;;;;;5029697;28;20205;-72
2022/04/05 02:24:03;;;;;;;5.17;1.83;;;5.40;99.90;;;;;;5015520;28;20579;-75
2022/04/05 02:26:29;;;;;;;4.33;2.00;;;5.40;99.90;;;;;;5012497;28;20206;-72
2022/04/05 02:28:56;;;;;;;3.17;1.80;;;5.40;99.90;;;;;;5029353;28;20212;-72
2022/04/05 02:31:23;;;;;;;4.37;1.70;;;5.40;99.90;;;;;;5029552;28;20271;-71
2022/04/05 02:33:51;;;;;;;10.20;2.43;;;5.40;99.90;;;;;;5029293;28;20209;-72
2022/04/05 02:36:17;;;;;;;2.33;1.43;;;5.40;99.90;;;;;;5029338;28;20231;-71
2022/04/05 02:38:44;;;;;;;5.23;1.87;;;5.40;99.90;;;;;;5029289;28;20570;-71
2022/04/05 02:41:11;;;;;;;3.40;1.60;;;5.40;99.90;;;;;;5029137;28;20244;-72
2022/04/05 02:43:38;;;;;;;5.80;1.87;;;5.40;99.90;;;;;;5029662;28;20297;-73
2022/04/05 02:46:08;;;;;;;3.47;1.70;;;5.40;99.90;;;;;;5028867;28;20205;-72
2022/04/05 02:48:35;;;;;;;5.10;2.40;;;5.40;99.90;;;;;;5029511;28;20212;-72
2022/04/05 02:51:05;;;;;;;6.53;2.00;;;5.40;99.90;;;;;;5027979;28;20216;-72
2022/04/05 02:53:32;;;;;;;6.70;2.00;;;5.40;99.90;;;;;;5022571;28;20208;-72
2022/04/05 02:55:59;;;;;;;7.30;2.10;;;5.40;99.90;;;;;;5028821;28;20219;-72
2022/04/05 02:58:26;;;;;;;3.87;1.80;;;5.40;99.90;;;;;;5029381;28;20212;-73
2022/04/05 03:00:53;;;;;;;4.10;1.67;;;5.40;99.90;;;;;;5029046;28;20233;-71
2022/04/05 03:03:20;;;;;;;3.20;1.80;;;5.40;99.90;;;;;;5028930;28;20299;-70
2022/04/05 03:05:46;;;;;;;4.60;1.70;;;5.40;99.90;;;;;;5029025;28;20209;-71
2022/04/05 03:08:16;;;;;;;9.10;1.93;;;5.40;99.90;;;;;;5028899;28;20209;-70
2022/04/05 03:10:43;;;;;;;11.77;2.10;;;5.30;99.90;;;;;;5028673;28;20219;-71
2022/04/05 03:13:09;;;;;;;7.13;2.20;;;5.30;99.90;;;;;;5028616;28;20209;-72
2022/04/05 03:15:36;;;;;;;8.17;2.43;;;5.30;99.90;;;;;;5028720;28;20205;-72
2022/04/05 03:18:03;;;;;;;5.93;1.53;;;5.30;99.90;;;;;;5025292;28;20217;-74
2022/04/05 03:20:30;;;;;;;3.97;1.60;;;5.30;99.90;;;;;;5026330;28;20306;-72
2022/04/05 03:22:59;;;;;;;7.30;2.00;;;5.30;99.90;;;;;;5026350;28;20209;-72
2022/04/05 03:25:27;;;;;;;4.97;1.70;;;5.30;99.90;;;;;;5027019;28;20209;-72
2022/04/05 03:28:00;;;;;;;3.37;1.63;;;5.30;99.90;;;;;;5025766;28;20200;-72
2022/04/05 03:30:26;;;;;;;7.43;1.83;;;5.30;99.90;;;;;;5026375;28;20691;-72
2022/04/05 03:32:53;;;;;;;7.40;2.07;;;5.30;99.90;;;;;;5025954;28;20205;-72
2022/04/05 03:35:20;;;;;;;4.30;2.20;;;5.30;99.90;;;;;;5025537;28;20201;-72
2022/04/05 03:37:46;;;;;;;7.17;1.90;;;5.30;99.90;;;;;;5025777;28;20286;-72
2022/04/05 03:40:13;;;;;;;6.00;1.90;;;5.30;99.90;;;;;;5026038;28;20228;-72
2022/04/05 03:42:41;;;;;;;6.63;1.87;;;5.30;99.90;;;;;;5026189;28;20619;-72
2022/04/05 03:45:09;;;;;;;7.40;1.40;;;5.20;99.90;;;;;;5025809;28;20216;-72
2022/04/05 03:47:36;;;;;;;3.30;1.90;;;5.20;99.90;;;;;;5026573;28;20265;-72
2022/04/05 03:50:04;;;;;;;4.83;1.60;;;5.20;99.90;;;;;;5026397;28;20307;-72
2022/04/05 03:52:31;;;;;;;4.43;1.97;;;5.20;99.90;;;;;;5039782;28;20209;-72
2022/04/05 03:54:58;;;;;;;5.37;1.80;;;5.10;99.90;;;;;;5025760;28;20729;-72
2022/04/05 03:57:24;;;;;;;3.10;1.67;;;5.10;99.90;;;;;;5025034;28;20205;-72
2022/04/05 03:59:52;;;;;;;9.67;1.60;;;5.10;99.90;;;;;;5027118;28;20642;-72
2022/04/05 04:02:20;;;;;;;4.27;1.73;;;5.10;99.90;;;;;;5027656;28;20209;-72
2022/04/05 04:04:47;;;;;;;4.03;1.40;;;5.10;99.90;;;;;;5029128;28;20204;-72
2022/04/05 04:07:19;;;;;;;5.20;1.90;;;5.10;99.90;;;;;;5031323;28;20208;-72
2022/04/05 04:09:46;;;;;;;6.80;1.97;;;5.00;99.90;;;;;;5030882;28;20589;-72
2022/04/05 04:12:12;;;;;;;5.83;2.00;;;5.10;99.90;;;;;;5029450;28;20250;-72
2022/04/05 04:14:39;;;;;;;5.00;1.90;;;5.00;99.90;;;;;;5029983;28;20625;-72
2022/04/05 04:17:07;;;;;;;6.73;2.27;;;5.00;99.90;;;;;;5032337;28;20212;-72
2022/04/05 04:19:34;;;;;;;6.77;2.20;;;5.00;99.90;;;;;;5029396;28;20240;-72
2022/04/05 04:22:01;;;;;;;5.33;1.83;;;5.00;99.90;;;;;;5030202;28;20207;-72
2022/04/05 04:24:27;;;;;;;4.97;2.00;;;5.00;99.90;;;;;;5029909;28;20208;-72
2022/04/05 04:26:54;;;;;;;3.47;1.93;;;5.00;99.90;;;;;;5029562;28;20197;-72
2022/04/05 04:29:21;;;;;;;8.17;2.33;;;5.00;99.90;;;;;;5029371;28;20208;-72
2022/04/05 04:31:48;;;;;;;3.03;1.67;;;5.00;99.90;;;;;;5029807;28;20739;-72
2022/04/05 04:34:17;;;;;;;11.03;2.73;;;5.00;99.90;;;;;;5029631;28;20672;-72
2022/04/05 04:36:43;;;;;;;5.83;2.53;;;5.00;99.90;;;;;;5029687;28;20209;-72
2022/04/05 04:39:10;;;;;;;3.80;2.03;;;5.00;99.90;;;;;;5029303;28;20232;-72
2022/04/05 04:41:37;;;;;;;8.20;1.80;;;5.00;99.90;;;;;;5029670;28;20275;-72
2022/04/05 04:44:04;;;;;;;5.83;2.27;;;5.00;99.90;;;;;;5029206;28;20683;-72
2022/04/05 04:46:31;;;;;;;4.43;1.90;;;5.00;99.90;;;;;;5030632;28;20200;-72
2022/04/05 04:48:57;;;;;;;7.27;2.20;;;5.00;99.90;;;;;;5030585;28;20200;-72
2022/04/05 04:51:25;;;;;;;10.43;1.97;;;5.00;99.90;;;;;;5029231;28;20201;-72
2022/04/05 04:53:52;;;;;;;6.60;2.50;;;5.00;99.90;;;;;;5025857;28;20844;-72
2022/04/05 04:56:19;;;;;;;9.00;2.33;;;5.00;99.90;;;;;;5029330;28;20207;-72
2022/04/05 04:58:46;;;;;;;3.50;1.90;;;5.00;99.90;;;;;;5029233;28;20238;-72
2022/04/05 05:01:13;;;;;;;4.20;1.80;;;5.00;99.90;;;;;;5028948;28;21047;-72
2022/04/05 05:03:39;;;;;;;6.33;2.13;;;5.00;99.90;;;;;;5028609;28;20212;-72
2022/04/05 05:06:06;;;;;;;5.77;2.20;;;5.00;99.90;;;;;;5026929;28;20224;-72
2022/04/05 05:08:34;;;;;;;7.97;2.67;;;5.00;99.90;;;;;;5029405;28;20204;-72
2022/04/05 05:11:03;;;;;;;6.73;2.17;;;5.10;99.90;;;;;;5029166;28;20212;-72
2022/04/05 05:13:31;;;;;;;4.17;2.07;;;5.10;99.90;;;;;;5028654;28;20205;-72
2022/04/05 05:15:58;;;;;;;6.90;2.47;;;5.10;99.90;;;;;;5028697;28;20201;-72
2022/04/05 05:18:25;;;;;;;11.07;2.90;;;5.10;99.90;;;;;;5028700;28;20259;-73
2022/04/05 05:20:51;;;;;;;3.30;2.57;;;5.10;99.90;;;;;;5028540;28;20240;-72
2022/04/05 05:23:18;;;;;;;7.80;2.70;;;5.10;99.90;;;;;;5028939;28;20201;-72
2022/04/05 05:25:47;;;;;;;10.87;2.77;;;5.10;99.90;;;;;;5028819;28;20255;-72
2022/04/05 05:28:15;;;;;;;12.87;3.30;;;5.10;99.90;;;;;;5029116;28;20295;-72
2022/04/05 05:30:42;;;;;;;6.17;2.80;;;5.10;99.90;;;;;;5028637;28;20208;-72
2022/04/05 05:33:09;;;;;;;12.20;2.93;;;5.20;99.90;;;;;;5028508;28;20259;-72
2022/04/05 05:35:36;;;;;;;5.53;2.30;;;5.20;99.90;;;;;;5028171;28;20214;-72
2022/04/05 05:38:03;;;;;;;8.80;2.37;;;5.20;99.90;;;;;;5027891;28;20224;-72
2022/04/05 05:40:30;;;;;;;6.40;2.83;;;5.30;99.90;;;;;;5028216;28;20251;-72
2022/04/05 05:43:01;;;;;;;5.50;2.20;;;5.30;99.90;;;;;;5030183;28;20200;-72
2022/04/05 05:45:29;;;;;;;14.63;2.93;;;5.30;99.90;;;;;;5026027;28;20197;-72
2022/04/05 05:47:56;;;;;;;5.70;2.03;;;5.30;99.90;;;;;;5028341;28;20208;-72
2022/04/05 05:50:24;;;;;;;5.93;2.03;;;5.30;99.90;;;;;;5028578;28;20275;-72
2022/04/05 05:52:51;;;;;;;6.13;2.70;;;5.30;99.90;;;;;;5027935;28;20274;-72
2022/04/05 05:55:20;;;;;;;7.73;2.43;;;5.20;99.90;;;;;;5028382;28;20258;-72
2022/04/05 05:57:47;;;;;;;7.50;2.83;;;5.30;99.90;;;;;;5022171;28;20212;-72
2022/04/05 06:00:21;;;;;;;7.97;2.40;;;5.30;99.90;;;;;;5026868;28;20220;-72
2022/04/05 06:02:48;;;;;;;8.43;2.40;;;5.30;99.90;;;;;;5027152;28;20212;-73
2022/04/05 06:05:15;;;;;;;6.80;2.20;;;5.30;99.90;;;;;;5028104;28;20251;-72
2022/04/05 06:07:43;;;;;;;5.50;2.00;;;5.30;99.90;;;;;;5028129;28;20201;-72
2022/04/05 06:10:12;;;;;;;7.67;2.40;;;5.40;99.90;;;;;;5028193;28;20204;-72
2022/04/05 06:12:39;;;;;;;5.10;2.17;;;5.40;99.90;;;;;;5027840;28;20205;-72
2022/04/05 06:15:09;;;;;;;7.20;2.30;;;5.50;99.90;;;;;;5022671;28;20203;-71
2022/04/05 06:17:38;;;;;;;6.90;2.87;;;5.50;99.90;;;;;;5030281;28;20246;-72
2022/04/05 06:20:06;;;;;;;6.10;2.80;;;5.50;99.90;;;;;;5027733;28;20232;-72
2022/04/05 06:22:41;;;;;;;4.27;2.10;;;5.60;99.90;;;;;;5027641;28;20201;-73
2022/04/05 06:25:09;;;;;;;8.63;2.60;;;5.60;99.90;;;;;;5025962;28;20239;-72
2022/04/05 06:27:36;;;;;;;5.37;2.30;;;5.60;99.90;;;;;;5027533;28;20201;-72
2022/04/05 06:30:04;;;;;;;5.40;1.70;;;5.60;99.90;;;;;;5027453;28;20209;-72
2022/04/05 06:32:31;;;;;;;4.83;2.27;;;5.60;99.90;;;;;;5027705;28;20212;-72
2022/04/05 06:34:59;;;;;;;2.97;1.60;;;5.60;99.90;;;;;;5027296;28;20204;-72
2022/04/05 06:37:25;;;;;;;5.70;1.90;;;5.50;99.90;;;;;;5027422;28;20279;-72
2022/04/05 06:39:52;;;;;;;5.63;2.07;;;5.50;99.90;;;;;;5027224;28;20220;-72
2022/04/05 06:42:19;;;;;;;8.30;1.90;;;5.50;99.90;;;;;;5027504;28;20282;-72
2022/04/05 06:44:45;;;;;;;5.10;1.63;;;5.50;99.90;;;;;;5027658;28;20578;-72
2022/04/05 06:47:12;;;;;;;6.37;2.10;;;5.50;99.90;;;;;;5027848;28;20204;-72
2022/04/05 06:49:39;;;;;;;7.40;1.87;;;5.50;99.90;;;;;;5027862;28;20201;-72
2022/04/05 06:52:07;;;;;;;2.17;1.60;;;5.50;99.90;;;;;;5022012;28;21037;-72
2022/04/05 06:54:34;;;;;;;5.13;1.90;;;5.50;99.90;;;;;;5027592;28;20213;-72
2022/04/05 06:57:01;;;;;;;7.43;2.00;;;5.50;99.90;;;;;;5027035;28;20221;-72
2022/04/05 06:59:27;;;;;;;6.00;1.90;;;5.60;99.90;;;;;;5027279;28;20271;-72
2022/04/05 07:01:54;;;;;;;2.93;1.73;;;5.60;99.90;;;;;;5026389;28;20232;-72
2022/04/05 07:04:21;;;;;;;4.07;1.70;;;5.60;99.90;;;;;;5026581;28;20263;-72
2022/04/05 07:06:47;;;;;;;2.73;1.40;;;5.70;99.90;;;;;;5027168;28;20201;-72
2022/04/05 07:09:15;;;;;;;3.00;1.50;;;5.70;99.90;;;;;;5026965;28;20201;-72
2022/04/05 07:11:42;;;;;;;4.27;1.67;;;5.70;99.90;;;;;;5026723;28;20200;-73
2022/04/05 07:14:09;;;;;;;3.40;1.47;;;5.80;99.90;;;;;;5026535;28;20231;-72
2022/04/05 07:16:36;;;;;;;4.50;1.30;;;5.90;99.90;;;;;;5027013;28;20233;-71
2022/04/05 07:19:02;;;;;;;4.93;1.60;;;5.90;99.90;;;;;;5029079;28;20236;-72
2022/04/05 07:21:29;;;;;;;3.33;1.33;;;5.90;99.90;;;;;;5027034;28;20247;-71
2022/04/05 07:23:56;;;;;;;2.30;1.23;;;6.00;99.90;;;;;;5026851;28;20204;-72
2022/04/05 07:26:24;;;;;;;4.07;1.43;;;6.00;99.90;;;;;;5026349;28;20208;-72
2022/04/05 07:28:50;;;;;;;2.60;1.20;;;6.10;99.90;;;;;;5024497;28;20205;-72
2022/04/05 07:31:17;;;;;;;1.90;1.23;;;6.00;99.90;;;;;;5025517;28;20212;-72
2022/04/05 07:33:43;;;;;;;2.07;0.97;;;6.00;99.90;;;;;;5026787;28;20255;-72
2022/04/05 07:36:10;;;;;;;3.33;2.03;;;5.90;99.90;;;;;;5026490;28;20212;-72
2022/04/05 07:38:37;;;;;;;5.10;2.57;;;5.90;99.90;;;;;;5026066;28;20232;-72
2022/04/05 07:41:07;;;;;;;2.90;1.20;;;5.90;99.90;;;;;;5026239;28;20266;-72
2022/04/05 07:43:35;;;;;;;3.97;1.53;;;6.00;99.90;;;;;;5026593;28;20262;-72
2022/04/05 07:46:01;;;;;;;3.70;1.23;;;6.00;99.90;;;;;;5026038;28;20622;-72
2022/04/05 07:48:29;;;;;;;5.73;1.73;;;6.00;99.90;;;;;;5025960;28;20246;-72
2022/04/05 07:50:56;;;;;;;4.10;1.40;;;6.10;99.90;;;;;;5026890;28;20337;-72
2022/04/05 07:53:23;;;;;;;2.67;1.33;;;6.10;99.90;;;;;;5026658;28;20296;-73
2022/04/05 07:55:50;;;;;;;2.27;1.17;;;6.20;99.90;;;;;;5026405;28;20205;-72
2022/04/05 07:58:16;;;;;;;2.23;1.20;;;6.20;99.90;;;;;;5026571;28;20197;-72
2022/04/05 08:00:44;;;;;;;4.23;1.40;;;6.20;99.90;;;;;;5026137;28;20254;-72
2022/04/05 08:03:11;;;;;;;5.10;1.67;;;6.30;99.90;;;;;;5026299;28;20197;-72
2022/04/05 08:05:40;;;;;;;7.73;1.53;;;6.30;99.90;;;;;;5026912;28;20267;-72
2022/04/05 08:08:07;;;;;;;5.40;1.50;;;6.40;99.90;;;;;;5027009;28;20201;-71
2022/04/05 08:10:34;;;;;;;3.73;1.57;;;6.30;99.90;;;;;;5027016;28;20217;-72
2022/04/05 08:13:01;;;;;;;1.80;1.70;;;6.40;99.90;;;;;;5026885;28;20335;-72
2022/04/05 08:15:28;;;;;;;3.23;1.50;;;6.40;99.90;;;;;;5026696;28;20255;-72
2022/04/05 08:17:57;;;;;;;2.57;1.60;;;6.40;99.90;;;;;;5024301;28;20676;-71
2022/04/05 08:20:24;;;;;;;2.03;1.30;;;6.40;99.90;;;;;;5015585;28;20268;-72
2022/04/05 08:22:51;;;;;;;3.00;1.37;;;6.40;99.90;;;;;;5026592;28;20310;-72
2022/04/05 08:25:19;;;;;;;2.67;1.07;;;6.50;99.90;;;;;;5027051;28;20201;-72
2022/04/05 08:27:47;;;;;;;1.90;1.10;;;6.60;99.90;;;;;;5026834;28;20208;-71
2022/04/05 08:30:17;;;;;;;2.63;1.50;;;6.70;99.90;;;;;;5026305;28;20205;-71
2022/04/05 08:32:45;;;;;;;4.50;1.60;;;6.60;99.90;;;;;;5026516;28;20215;-71
2022/04/05 08:35:15;;;;;;;2.63;1.20;;;6.70;99.90;;;;;;5026886;28;20209;-71
2022/04/05 08:37:42;;;;;;;2.53;1.50;;;6.80;99.90;;;;;;5026082;28;20645;-71
2022/04/05 08:40:10;;;;;;;2.10;1.00;;;6.90;99.90;;;;;;5026331;28;20201;-72
2022/04/05 08:42:38;;;;;;;2.63;1.10;;;6.90;99.90;;;;;;5026721;28;20224;-71
2022/04/05 08:45:10;;;;;;;3.93;1.40;;;7.00;99.90;;;;;;5026560;28;20213;-71
2022/04/05 08:47:41;;;;;;;3.03;1.30;;;6.90;99.90;;;;;;5026616;28;20197;-71
2022/04/05 08:50:09;;;;;;;4.57;1.43;;;6.90;99.90;;;;;;5026261;28;20207;-71
2022/04/05 08:52:37;;;;;;;2.90;1.10;;;7.00;99.90;;;;;;5029723;28;20602;-71
2022/04/05 08:55:04;;;;;;;1.63;1.20;;;7.00;99.90;;;;;;5029950;28;20213;-71
2022/04/05 08:57:31;;;;;;;2.00;1.23;;;6.90;99.90;;;;;;5029802;28;20231;-71
2022/04/05 08:59:58;;;;;;;2.67;1.43;;;6.90;99.90;;;;;;5029941;28;20201;-71
2022/04/05 09:02:26;;;;;;;2.70;1.30;;;6.90;99.90;;;;;;5029828;28;20287;-71
2022/04/05 09:04:53;;;;;;;3.93;1.37;;;7.00;99.90;;;;;;5029916;28;20276;-71
2022/04/05 09:07:21;;;;;;;5.27;1.40;;;7.00;99.90;;;;;;5027349;28;20205;-71
2022/04/05 09:10:11;;;;;;;3.90;1.30;;;7.00;99.90;;;;;;5029901;28;20197;-71
2022/04/05 09:12:43;;;;;;;2.33;1.30;;;7.00;99.90;;;;;;5029516;28;20239;-71
2022/04/05 09:15:12;;;;;;;4.10;1.60;;;7.00;99.90;;;;;;5029314;28;20275;-71
2022/04/05 09:17:40;;;;;;;4.43;1.40;;;7.20;99.90;;;;;;5030189;28;20201;-71
2022/04/05 09:20:08;;;;;;;3.77;1.40;;;7.20;99.90;;;;;;5029008;28;20322;-71
2022/04/05 09:22:35;;;;;;;3.30;1.50;;;7.20;99.90;;;;;;5029308;28;20233;-71
2022/04/05 09:25:05;;;;;;;2.67;0.87;;;7.20;99.90;;;;;;5029094;28;20580;-72
2022/04/05 09:27:49;;;;;;;1.97;0.93;;;7.30;99.90;;;;;;5029809;28;20205;-71
2022/04/05 09:30:17;;;;;;;4.20;1.40;;;7.40;99.90;;;;;;5028640;28;20212;-71
2022/04/05 09:32:47;;;;;;;3.40;1.77;;;7.50;99.90;;;;;;5029567;28;20201;-71
2022/04/05 09:35:15;;;;;;;3.77;2.97;;;7.40;99.90;;;;;;5029366;28;20240;-71
2022/04/05 09:37:42;;;;;;;3.73;1.80;;;7.40;99.90;;;;;;5029339;28;20225;-71
2022/04/05 09:40:19;;;;;;;3.47;1.53;;;7.40;99.90;;;;;;5029575;28;20193;-71
2022/04/05 09:42:59;;;;;;;3.07;1.57;;;7.40;99.90;;;;;;5027690;28;20243;-71
2022/04/05 09:45:50;;;;;;;2.57;1.17;;;7.40;99.90;;;;;;5027409;28;20232;-71
2022/04/05 09:48:19;;;;;;;4.77;1.60;;;7.40;99.90;;;;;;5028379;28;20197;-71
2022/04/05 09:51:02;;;;;;;4.47;1.27;;;7.50;99.90;;;;;;5029653;28;20225;-71
2022/04/05 09:53:31;;;;;;;3.83;1.43;;;7.50;99.90;;;;;;5027856;28;20217;-71
2022/04/05 09:56:10;;;;;;;1.73;1.00;;;7.50;99.90;;;;;;5028593;28;20607;-71
2022/04/05 09:58:45;;;;;;;2.43;0.80;;;7.60;99.90;;;;;;5028948;28;20193;-71
2022/04/05 10:01:11;;;;;;;4.27;1.50;;;7.50;99.90;;;;;;5028846;28;20271;-71
2022/04/05 10:03:39;;;;;;;2.63;1.30;;;7.60;99.90;;;;;;5028097;28;20211;-71
2022/04/05 10:06:06;;;;;;;2.37;1.10;;;7.60;99.90;;;;;;5028949;28;20578;-71
2022/04/05 10:08:34;;;;;;;3.90;1.20;;;7.50;99.90;;;;;;5028279;28;20204;-72
2022/04/05 10:11:04;;;;;;;2.97;1.30;;;7.50;99.90;;;;;;5028601;28;20201;-71
2022/04/05 10:13:32;;;;;;;2.97;1.13;;;7.50;99.90;;;;;;5028866;28;20286;-71
2022/04/05 10:16:00;;;;;;;2.63;0.80;;;7.50;99.90;;;;;;5023324;28;20551;-71
2022/04/05 10:18:33;;;;;;;3.43;1.23;;;7.50;99.90;;;;;;5032560;28;20209;-71
2022/04/05 10:21:04;;;;;;;4.07;1.07;;;7.60;99.90;;;;;;5026151;28;20228;-71
2022/04/05 10:23:32;;;;;;;1.50;1.20;;;7.60;99.90;;;;;;5027382;28;20315;-71
2022/04/05 10:26:00;;;;;;;3.83;1.53;;;7.70;99.90;;;;;;5025630;28;20213;-71
2022/04/05 10:28:29;;;;;;;3.63;1.47;;;7.70;99.90;;;;;;5028104;28;20595;-71
2022/04/05 10:31:11;;;;;;;4.73;0.90;;;7.80;99.90;;;;;;5027611;28;20209;-71
2022/04/05 10:33:46;;;;;;;3.60;1.40;;;7.80;99.90;;;;;;5027598;28;20203;-71
2022/04/05 10:36:13;;;;;;;1.43;0.90;;;7.80;99.90;;;;;;5028193;28;20287;-71
2022/04/05 10:38:39;;;;;;;3.03;1.27;;;7.90;99.90;;;;;;5025215;28;20227;-71
2022/04/05 10:41:17;;;;;;;1.27;1.00;;;7.90;99.90;;;;;;5028083;28;20201;-71
2022/04/05 10:43:45;;;;;;;1.77;0.97;;;8.20;99.90;;;;;;5025985;28;20821;-71
2022/04/05 10:46:14;;;;;;;4.63;1.10;;;8.30;99.90;;;;;;5027311;28;20874;-71
2022/04/05 10:48:57;;;;;;;1.83;0.90;;;8.20;99.90;;;;;;5022996;28;20208;-72
2022/04/05 10:51:32;;;;;;;3.50;0.90;;;8.30;99.90;;;;;;5025644;28;20537;-71
2022/04/05 10:54:20;;;;;;;7.23;1.47;;;8.30;99.90;;;;;;5025295;28;20318;-71
2022/04/05 10:57:21;;;;;;;1.70;0.70;;;8.30;99.90;;;;;;5026387;28;20205;-71
2022/04/05 10:59:50;;;;;;;2.00;1.03;;;8.30;99.90;;;;;;5025706;28;20197;-71
2022/04/05 11:02:41;;;;;;;3.60;1.00;;;8.40;99.90;;;;;;5027759;28;20228;-71
2022/04/05 11:05:37;;;;;;;2.27;1.40;;;8.40;99.90;;;;;;5026004;28;20263;-71
2022/04/05 11:08:07;;;;;;;2.60;0.80;;;8.40;99.90;;;;;;5027821;28;20192;-71
2022/04/05 11:10:52;;;;;;;2.73;0.87;;;8.30;99.90;;;;;;5027590;28;20299;-71
2022/04/05 11:13:22;;;;;;;1.07;0.83;;;8.20;99.90;;;;;;5027592;28;20193;-71
2022/04/05 11:15:51;;;;;;;2.23;0.90;;;8.20;99.90;;;;;;5027442;28;20189;-71
2022/04/05 11:18:20;;;;;;;5.43;1.10;;;8.20;99.90;;;;;;5020524;28;20714;-71
2022/04/05 11:20:48;;;;;;;1.50;0.90;;;8.20;99.90;;;;;;5026887;28;20241;-71
2022/04/05 11:23:17;;;;;;;1.70;1.00;;;8.10;99.90;;;;;;5027467;28;20621;-71
2022/04/05 11:25:44;;;;;;;3.43;1.90;;;8.10;99.90;;;;;;5027442;28;20209;-71
2022/04/05 11:28:13;;;;;;;3.07;1.27;;;8.00;99.90;;;;;;5024789;28;20300;-71
2022/04/05 11:30:46;;;;;;;2.20;1.47;;;8.10;99.90;;;;;;5027121;28;20258;-71
2022/04/05 11:33:36;;;;;;;1.43;0.83;;;8.10;99.90;;;;;;5030221;28;20204;-72
2022/04/05 11:36:07;;;;;;;2.03;0.87;;;8.20;99.90;;;;;;5025380;28;20197;-71
2022/04/05 11:38:36;;;;;;;4.23;1.07;;;8.30;99.90;;;;;;5027507;28;20205;-71
2022/04/05 11:41:09;;;;;;;1.07;0.63;;;8.40;99.90;;;;;;5027774;28;20208;-71
2022/04/05 11:43:39;;;;;;;4.17;1.10;;;8.50;99.90;;;;;;5027116;28;20283;-71
2022/04/05 11:46:09;;;;;;;2.23;0.97;;;8.60;99.90;;;;;;5026847;28;20213;-71
2022/04/05 11:48:41;;;;;;;3.13;1.17;;;8.60;99.90;;;;;;5027641;28;20295;-71
2022/04/05 11:51:11;;;;;;;2.90;0.80;;;8.60;99.90;;;;;;5026556;28;20707;-71
2022/04/05 11:53:38;;;;;;;2.63;0.80;;;8.50;99.90;;;;;;5027223;28;20209;-71
2022/04/05 11:56:16;;;;;;;1.80;1.00;;;8.50;99.90;;;;;;5026799;28;20247;-71
2022/04/05 11:58:46;;;;;;;2.83;1.00;;;8.50;99.90;;;;;;5025547;28;20200;-71
2022/04/05 12:01:15;;;;;;;2.47;1.13;;;8.40;99.90;;;;;;5027615;28;20200;-71
2022/04/05 12:03:45;;;;;;;2.27;1.10;;;8.40;99.90;;;;;;5025179;28;20232;-71
2022/04/05 12:06:13;;;;;;;3.20;0.97;;;8.40;99.90;;;;;;5026649;28;20744;-72
2022/04/05 12:08:40;;;;;;;1.57;0.90;;;8.40;99.90;;;;;;5026976;28;20231;-71
2022/04/05 12:11:08;;;;;;;1.77;0.90;;;8.40;99.90;;;;;;5027163;28;20209;-72
2022/04/05 12:13:35;;;;;;;2.37;1.00;;;8.40;99.90;;;;;;5026475;28;20825;-72
2022/04/05 12:16:07;;;;;;;2.47;0.93;;;8.40;99.90;;;;;;5026877;28;20297;-72
2022/04/05 12:18:34;;;;;;;2.77;1.20;;;8.50;99.90;;;;;;5029568;28;20209;-72
2022/04/05 12:21:08;;;;;;;3.03;1.00;;;8.50;99.90;;;;;;5023444;28;20271;-72
2022/04/05 12:23:37;;;;;;;2.27;0.97;;;8.50;99.90;;;;;;5026851;28;20225;-71
2022/04/05 12:26:13;;;;;;;2.70;1.00;;;8.50;99.90;;;;;;5026106;28;20205;-72
2022/04/05 12:28:42;;;;;;;6.40;1.23;;;8.50;99.90;;;;;;5030761;28;20195;-71
2022/04/05 12:31:11;;;;;;;1.73;1.10;;;8.40;99.90;;;;;;5030220;28;20663;-71
2022/04/05 12:33:40;;;;;;;4.03;0.90;;;8.40;99.90;;;;;;5030412;28;20568;-72
2022/04/05 12:36:09;;;;;;;2.37;1.37;;;8.40;99.90;;;;;;5030220;28;20200;-72
2022/04/05 12:38:37;;;;;;;1.90;1.20;;;8.30;99.90;;;;;;5030433;28;20215;-72
2022/04/05 12:41:14;;;;;;;2.33;1.00;;;8.40;99.90;;;;;;5030676;28;20315;-70
2022/04/05 12:43:40;;;;;;;2.07;1.10;;;8.40;99.90;;;;;;5027773;28;20212;-72
2022/04/05 12:46:12;;;;;;;2.37;1.27;;;8.50;99.90;;;;;;5029776;28;20675;-71
2022/04/05 12:48:39;;;;;;;1.77;1.10;;;8.60;99.90;;;;;;5030380;28;20201;-72
2022/04/05 12:51:06;;;;;;;4.20;1.43;;;8.60;99.90;;;;;;5030251;28;20298;-72
2022/04/05 12:53:37;;;;;;;9.57;2.07;;;8.70;99.90;;;;;;5030649;28;20240;-71
2022/04/05 12:56:09;;;;;;;2.07;0.87;;;8.60;99.90;;;;;;5030405;28;20193;-72
2022/04/05 12:58:45;;;;;;;4.50;1.77;;;8.50;99.90;;;;;;5030027;28;20320;-71
2022/04/05 13:01:23;;;;;;;1.90;1.10;;;8.50;99.90;;;;;;5029342;28;20715;-71
2022/04/05 13:03:57;;;;;;;1.83;1.10;;;8.50;99.90;;;;;;5022212;28;20250;-72
2022/04/05 13:06:29;;;;;;;2.00;0.87;;;8.40;99.90;;;;;;5025738;28;20201;-71